Time;durP1;ratioP1;P1;durP2;ratioP2;P2;SDS_P1;SDS_P2;PMS_P1;PMS_P2;Temp;Humidity;BMP_temperature;BMP_pressure;BME280_temperature;BME280_humidity;BME280_pressure;Samples;Min_cycle;Max_cycle;Signal;HPM_P1;HPM_P2
2022/12/10 00:01:14;;;;;;;180.20;18.75;;;;;;;7.87;100.00;97104.13;4470318;32;20109;-73
2022/12/10 00:03:41;;;;;;;178.48;17.40;;;;;;;7.89;100.00;97102.16;4470060;32;20465;-72
2022/12/10 00:06:11;;;;;;;97.90;16.73;;;;;;;7.94;100.00;97098.09;4467789;32;83562;-72
2022/12/10 00:08:39;;;;;;;119.45;15.93;;;;;;;7.96;100.00;97096.16;4475046;32;20105;-72
2022/12/10 00:11:09;;;;;;;90.18;15.90;;;;;;;7.91;100.00;97103.63;4486184;31;20476;-72
2022/12/10 00:13:36;;;;;;;120.78;16.80;;;;;;;7.93;100.00;97106.91;4485845;31;20110;-72
2022/12/10 00:16:06;;;;;;;71.25;14.55;;;;;;;7.99;100.00;97121.06;4484588;32;20175;-72
2022/12/10 00:18:34;;;;;;;72.47;15.73;;;;;;;7.96;100.00;97117.00;4485815;32;20112;-72
2022/12/10 00:21:03;;;;;;;118.43;16.42;;;;;;;8.01;100.00;97126.97;4478838;31;20505;-72
2022/12/10 00:23:32;;;;;;;422.20;27.85;;;;;;;7.86;100.00;97128.53;4470061;32;20089;-72
2022/12/10 00:26:08;;;;;;;385.75;24.90;;;;;;;7.69;100.00;97131.12;4470228;32;20092;-72
2022/12/10 00:28:37;;;;;;;440.58;27.48;;;;;;;7.55;100.00;97139.56;4470239;32;20490;-72
2022/12/10 00:31:25;;;;;;;346.95;21.45;;;;;;;7.43;100.00;97136.41;4470226;32;20108;-72
2022/12/10 00:33:55;;;;;;;65.32;13.25;;;;;;;7.23;100.00;97143.66;4469782;32;20092;-72
2022/12/10 00:36:25;;;;;;;41.95;11.57;;;;;;;7.05;100.00;97144.56;4470114;32;20194;-72
2022/12/10 00:38:52;;;;;;;22.85;10.18;;;;;;;7.03;100.00;97148.31;4469567;32;20097;-72
2022/12/10 00:41:19;;;;;;;24.00;11.82;;;;;;;7.02;100.00;97136.25;4468879;32;20563;-72
2022/12/10 00:43:47;;;;;;;24.37;11.15;;;;;;;7.08;100.00;97138.22;4469972;32;20163;-72
2022/12/10 00:46:15;;;;;;;23.85;11.18;;;;;;;6.92;100.00;97142.37;4470083;32;20165;-72
2022/12/10 00:48:42;;;;;;;22.90;10.93;;;;;;;6.95;100.00;97148.25;4470040;32;20160;-71
2022/12/10 00:51:21;;;;;;;25.75;11.45;;;;;;;6.76;100.00;97155.28;4469794;32;20175;-72
2022/12/10 00:53:50;;;;;;;27.60;11.60;;;;;;;6.68;100.00;97148.25;4469814;32;20442;-71
2022/12/10 00:56:20;;;;;;;25.90;12.07;;;;;;;6.62;100.00;97159.28;4469992;32;20165;-71
2022/12/10 00:58:48;;;;;;;30.10;11.73;;;;;;;6.54;100.00;97161.78;4469704;32;20089;-71
2022/12/10 01:01:21;;;;;;;36.95;12.13;;;;;;;6.59;100.00;97161.38;4469911;32;20123;-72
2022/12/10 01:03:52;;;;;;;38.78;12.32;;;;;;;6.57;100.00;97164.94;4469689;32;20102;-72
2022/12/10 01:06:25;;;;;;;110.37;14.50;;;;;;;6.65;100.00;97177.19;4469945;32;20081;-72
2022/12/10 01:08:55;;;;;;;32.45;11.07;;;;;;;6.55;100.00;97166.03;4476091;32;20101;-72
2022/12/10 01:11:25;;;;;;;23.83;10.98;;;;;;;6.52;100.00;97172.34;4485686;31;20437;-72
2022/12/10 01:13:53;;;;;;;23.48;11.27;;;;;;;6.52;100.00;97174.97;4485537;31;20127;-71
2022/12/10 01:16:21;;;;;;;20.25;10.00;;;;;;;6.48;100.00;97178.00;4485667;31;20160;-72
2022/12/10 01:18:52;;;;;;;20.52;10.30;;;;;;;6.56;100.00;97175.50;4485645;31;20100;-72
2022/12/10 01:21:20;;;;;;;21.73;10.23;;;;;;;6.60;100.00;97179.44;4476403;31;20549;-72
2022/12/10 01:23:49;;;;;;;22.75;11.30;;;;;;;6.52;100.00;97180.16;4469844;32;20088;-72
2022/12/10 01:26:21;;;;;;;21.00;10.52;;;;;;;6.47;100.00;97179.00;4469817;32;20156;-72
2022/12/10 01:28:50;;;;;;;19.40;9.80;;;;;;;6.54;100.00;97173.03;4469371;32;20111;-72
2022/12/10 01:31:21;;;;;;;18.40;9.60;;;;;;;6.64;100.00;97185.12;4469725;32;20118;-72
2022/12/10 01:33:49;;;;;;;17.10;8.55;;;;;;;6.50;100.00;97174.31;4469688;32;20122;-72
2022/12/10 01:36:18;;;;;;;18.58;10.18;;;;;;;6.61;100.00;97182.84;4469842;32;20119;-72
2022/12/10 01:38:46;;;;;;;16.62;8.77;;;;;;;6.54;100.00;97169.59;4469324;32;20156;-71
2022/12/10 01:41:16;;;;;;;17.80;8.45;;;;;;;6.49;100.00;97171.84;4469830;32;20119;-72
2022/12/10 01:43:59;;;;;;;18.58;7.82;;;;;;;6.39;100.00;97171.94;4469740;32;20092;-71
2022/12/10 01:46:32;;;;;;;18.48;8.77;;;;;;;6.36;100.00;97169.66;4469692;32;20589;-72
2022/12/10 01:49:02;;;;;;;18.10;7.72;;;;;;;6.32;100.00;97178.72;4469514;32;20144;-71
2022/12/10 01:51:31;;;;;;;15.57;7.53;;;;;;;6.28;100.00;97185.16;4469887;32;20089;-72
2022/12/10 01:53:59;;;;;;;14.82;7.22;;;;;;;6.22;100.00;97192.62;4469633;32;20152;-71
2022/12/10 01:56:26;;;;;;;12.02;7.10;;;;;;;6.17;100.00;97196.63;4468392;32;20084;-71
2022/12/10 01:58:56;;;;;;;11.38;6.00;;;;;;;6.04;100.00;97205.59;4469500;32;20139;-71
2022/12/10 02:01:28;;;;;;;13.52;6.47;;;;;;;6.01;100.00;97197.25;4467354;32;20165;-72
2022/12/10 02:04:08;;;;;;;14.25;6.57;;;;;;;5.99;100.00;97194.00;4469254;32;20141;-71
2022/12/10 02:06:56;;;;;;;17.65;7.00;;;;;;;6.01;100.00;97205.06;4469414;32;20081;-72
2022/12/10 02:09:36;;;;;;;11.77;6.47;;;;;;;5.87;100.00;97211.53;4478801;32;20214;-71
2022/12/10 02:12:10;;;;;;;12.73;6.25;;;;;;;5.82;100.00;97208.56;4484132;32;20097;-72
2022/12/10 02:14:58;;;;;;;13.73;7.10;;;;;;;5.75;100.00;97210.91;4485217;31;20115;-72
2022/12/10 02:17:34;;;;;;;14.75;6.68;;;;;;;5.66;100.00;97212.63;4483790;32;20079;-71
2022/12/10 02:20:36;;;;;;;13.35;7.07;;;;;;;5.60;100.00;97220.16;4484086;31;20077;-71
2022/12/10 02:23:18;;;;;;;14.60;7.47;;;;;;;5.56;100.00;97208.44;4423527;32;20117;-71
2022/12/10 02:25:53;;;;;;;18.08;7.75;;;;;;;5.55;100.00;97209.41;4422891;32;20132;-71
2022/12/10 02:29:01;;;;;;;14.10;7.05;;;;;;;5.51;100.00;97212.28;4423285;32;20089;-71
2022/12/10 02:31:31;;;;;;;14.38;6.93;;;;;;;5.44;100.00;97200.81;4435769;32;20105;-72
2022/12/10 02:34:01;;;;;;;17.60;7.90;;;;;;;5.45;100.00;97191.25;4423306;32;20101;-71
2022/12/10 02:36:32;;;;;;;14.07;7.18;;;;;;;5.45;100.00;97186.91;4435730;32;20101;-71
2022/12/10 02:39:01;;;;;;;14.80;7.05;;;;;;;5.32;100.00;97196.78;4423131;32;20219;-71
2022/12/10 02:41:34;;;;;;;14.65;7.30;;;;;;;5.34;100.00;97207.84;4423024;32;20143;-71
2022/12/10 02:44:05;;;;;;;27.13;7.82;;;;;;;5.30;100.00;97190.94;4423015;32;20598;-71
2022/12/10 02:46:33;;;;;;;18.42;7.57;;;;;;;5.28;100.00;97198.03;4435447;32;20101;-72
2022/12/10 02:49:06;;;;;;;28.00;7.95;;;;;;;5.22;100.00;97194.22;4435852;32;20098;-71
2022/12/10 02:51:34;;;;;;;27.95;7.47;;;;;;;5.16;100.00;97187.00;4423009;32;20125;-72
2022/12/10 02:54:04;;;;;;;15.05;7.28;;;;;;;5.15;100.00;97188.78;4435578;32;20123;-71
2022/12/10 02:56:53;;;;;;;12.20;6.53;;;;;;;5.05;100.00;97193.19;4435585;32;20097;-72
2022/12/10 02:59:26;;;;;;;12.57;5.95;;;;;;;4.96;100.00;97183.66;4441560;32;20685;-72
2022/12/10 03:02:06;;;;;;;12.80;6.05;;;;;;;4.91;100.00;97183.25;4468875;32;20092;-72
2022/12/10 03:04:52;;;;;;;14.80;6.20;;;;;;;4.87;100.00;97195.69;4467531;32;20105;-72
2022/12/10 03:07:27;;;;;;;11.45;5.97;;;;;;;4.90;100.00;97212.75;4468748;32;20076;-72
2022/12/10 03:10:29;;;;;;;12.10;5.93;;;;;;;4.82;100.00;97213.47;4480768;32;20097;-71
2022/12/10 03:12:59;;;;;;;9.75;5.03;;;;;;;4.86;100.00;97226.94;4483939;32;20517;-71
2022/12/10 03:15:30;;;;;;;10.07;5.30;;;;;;;4.67;100.00;97227.81;4485224;32;20498;-71
2022/12/10 03:17:59;;;;;;;10.48;5.87;;;;;;;4.69;100.00;97226.69;4485215;32;20164;-71
2022/12/10 03:20:26;;;;;;;10.25;5.68;;;;;;;4.60;100.00;97232.72;4481544;32;20454;-71
2022/12/10 03:22:54;;;;;;;12.48;6.32;;;;;;;4.54;100.00;97222.91;4470627;32;20203;-72
2022/12/10 03:25:24;;;;;;;14.23;5.20;;;;;;;4.49;100.00;97215.53;4470501;32;20451;-71
2022/12/10 03:27:54;;;;;;;10.02;5.57;;;;;;;4.43;100.00;97222.06;4470705;32;20817;-72
2022/12/10 03:30:23;;;;;;;7.07;4.65;;;;;;;4.48;100.00;97206.13;4470601;32;20611;-71
2022/12/10 03:32:51;;;;;;;10.02;5.20;;;;;;;4.41;100.00;97210.22;4470497;32;20127;-71
2022/12/10 03:35:20;;;;;;;12.90;5.53;;;;;;;4.41;100.00;97216.22;4469140;32;20100;-71
2022/12/10 03:37:49;;;;;;;9.55;5.10;;;;;;;4.34;100.00;97212.53;4468970;32;20152;-72
2022/12/10 03:40:21;;;;;;;11.30;5.72;;;;;;;4.30;100.00;97218.97;4469293;32;20557;-71
2022/12/10 03:42:48;;;;;;;14.38;5.93;;;;;;;4.27;100.00;97221.81;4469149;32;20166;-71
2022/12/10 03:45:15;;;;;;;12.13;5.28;;;;;;;4.32;100.00;97229.19;4470516;32;20152;-71
2022/12/10 03:47:45;;;;;;;15.00;5.60;;;;;;;4.31;100.00;97236.13;4470479;32;20109;-72
2022/12/10 03:50:12;;;;;;;13.48;5.32;;;;;;;4.18;100.00;97225.19;4470460;32;20489;-71
2022/12/10 03:52:39;;;;;;;18.42;6.07;;;;;;;4.20;100.00;97236.28;4470271;32;20453;-71
2022/12/10 03:55:07;;;;;;;18.20;6.40;;;;;;;4.23;100.00;97242.00;4470565;32;20156;-72
2022/12/10 03:57:35;;;;;;;15.25;6.10;;;;;;;4.30;100.00;97241.44;4470453;32;20088;-71
2022/12/10 04:00:04;;;;;;;15.13;6.50;;;;;;;4.36;100.00;97238.31;4470354;32;20097;-71
2022/12/10 04:02:38;;;;;;;18.40;6.37;;;;;;;4.34;100.00;97246.22;4470025;32;20146;-72
2022/12/10 04:05:06;;;;;;;23.58;6.87;;;;;;;4.41;100.00;97254.31;4470219;32;20202;-72
2022/12/10 04:07:34;;;;;;;49.92;7.80;;;;;;;4.30;100.00;97257.00;4469982;32;20664;-72
2022/12/10 04:10:01;;;;;;;73.15;7.75;;;;;;;4.31;100.00;97262.06;4484146;32;20100;-71
2022/12/10 04:12:29;;;;;;;67.60;8.25;;;;;;;4.29;100.00;97270.94;4485802;31;20119;-72
2022/12/10 04:17:41;;;;;;;106.20;9.75;;;;;;;4.22;100.00;97270.63;4485920;31;20136;-72
2022/12/10 04:26:51;;;;;;;146.02;11.23;;;;;;;4.32;100.00;97271.47;4484492;31;20140;-71
2022/12/10 04:28:28;;;;;;;151.65;9.73;;;;;;;4.22;100.00;97276.66;4470037;32;20072;-71
2022/12/10 04:30:55;;;;;;;145.80;11.93;;;;;;;4.20;100.00;97264.78;4470002;32;20080;-72
2022/12/10 04:33:22;;;;;;;58.35;7.70;;;;;;;4.16;100.00;97258.22;4470168;32;20120;-71
2022/12/10 04:35:50;;;;;;;59.92;8.98;;;;;;;4.16;100.00;97264.22;4470086;32;20567;-72
2022/12/10 04:38:16;;;;;;;108.75;9.32;;;;;;;4.21;100.00;97263.81;4469904;32;20387;-71
2022/12/10 04:40:43;;;;;;;129.80;10.70;;;;;;;4.17;100.00;97262.47;4469913;32;20109;-72
2022/12/10 04:43:11;;;;;;;41.55;7.30;;;;;;;4.20;100.00;97262.19;4470046;32;20105;-72
2022/12/10 04:45:38;;;;;;;22.77;5.97;;;;;;;4.20;100.00;97262.19;4470074;32;20118;-72
2022/12/10 04:48:05;;;;;;;15.02;5.82;;;;;;;4.17;100.00;97257.28;4469927;32;20127;-71
2022/12/10 04:50:33;;;;;;;18.60;7.07;;;;;;;4.14;100.00;97257.53;4469999;32;20097;-71
2022/12/10 04:53:00;;;;;;;13.10;5.75;;;;;;;4.06;100.00;97243.47;4469780;32;20093;-71
2022/12/10 04:55:27;;;;;;;15.48;5.50;;;;;;;4.12;100.00;97244.72;4470058;32;20164;-72
2022/12/10 04:57:54;;;;;;;12.25;5.82;;;;;;;4.04;100.00;97232.44;4469849;32;20092;-72
2022/12/10 05:00:21;;;;;;;13.85;7.03;;;;;;;4.04;100.00;97232.44;4469768;32;20084;-71
2022/12/10 05:02:49;;;;;;;14.80;5.87;;;;;;;4.14;100.00;97232.44;4469744;32;20172;-72
2022/12/10 05:05:16;;;;;;;13.10;5.93;;;;;;;4.10;100.00;97241.41;4469704;32;20184;-71
2022/12/10 05:07:43;;;;;;;13.00;6.80;;;;;;;4.11;100.00;97253.44;4469789;32;20148;-71
2022/12/10 05:10:10;;;;;;;13.48;7.57;;;;;;;4.17;100.00;97263.25;4484917;32;20097;-71
2022/12/10 05:12:38;;;;;;;14.98;7.12;;;;;;;4.09;100.00;97266.53;4485579;32;20108;-72
2022/12/10 05:15:06;;;;;;;18.00;6.82;;;;;;;4.11;100.00;97270.78;4485520;32;20167;-72
2022/12/10 05:17:33;;;;;;;16.37;6.45;;;;;;;4.09;100.00;97276.91;4485316;31;20125;-72
2022/12/10 05:20:02;;;;;;;13.60;6.20;;;;;;;4.19;100.00;97276.91;4484935;31;20479;-71
2022/12/10 05:25:14;;;;;;;17.33;7.37;;;;;;;4.31;100.00;97287.97;4470074;32;20101;-71
2022/12/10 05:27:41;;;;;;;15.13;7.53;;;;;;;4.22;100.00;97286.19;4469665;32;20084;-72
2022/12/10 05:30:09;;;;;;;13.35;7.05;;;;;;;4.24;100.00;97289.50;4469621;32;20127;-72
2022/12/10 05:32:37;;;;;;;19.77;7.32;;;;;;;4.26;100.00;97292.75;4469566;32;20177;-71
2022/12/10 05:35:05;;;;;;;20.90;8.23;;;;;;;4.20;100.00;97275.97;4469493;32;20122;-71
2022/12/10 05:37:32;;;;;;;31.98;7.45;;;;;;;4.17;100.00;97275.41;4468342;32;20156;-71
2022/12/10 05:40:00;;;;;;;39.38;9.00;;;;;;;4.08;100.00;97283.03;4469716;32;20160;-71
2022/12/10 05:42:27;;;;;;;21.17;7.87;;;;;;;4.15;100.00;97290.25;4469540;32;20439;-71
2022/12/10 05:44:54;;;;;;;26.05;8.65;;;;;;;4.15;100.00;97295.44;4469447;32;20164;-71
2022/12/10 05:47:22;;;;;;;23.85;10.13;;;;;;;4.17;100.00;97293.56;4469601;32;20127;-71
2022/12/10 05:49:49;;;;;;;24.80;9.55;;;;;;;4.14;100.00;97304.19;4469514;32;20386;-72
2022/12/10 05:52:18;;;;;;;23.45;8.98;;;;;;;4.17;100.00;97298.75;4469564;32;20732;-72
2022/12/10 05:54:45;;;;;;;20.73;9.45;;;;;;;4.21;100.00;97287.13;4469336;32;20218;-71
2022/12/10 05:57:12;;;;;;;22.92;10.30;;;;;;;4.08;100.00;97290.78;4469571;32;20614;-72
2022/12/10 05:59:39;;;;;;;32.63;11.38;;;;;;;4.16;100.00;97284.12;4469199;32;20258;-71
2022/12/10 06:02:07;;;;;;;38.58;11.32;;;;;;;4.01;100.00;97289.72;4469463;32;20176;-71
2022/12/10 06:04:34;;;;;;;47.38;13.25;;;;;;;3.98;100.00;97305.53;4469250;32;20101;-71
2022/12/10 06:07:01;;;;;;;118.50;15.10;;;;;;;4.01;100.00;97304.41;4469415;32;20111;-71
2022/12/10 06:09:35;;;;;;;49.35;13.32;;;;;;;3.97;100.00;97297.88;4480456;32;20412;-71
2022/12/10 06:12:02;;;;;;;49.33;13.82;;;;;;;3.91;100.00;97307.00;4485047;31;20152;-71
2022/12/10 06:14:29;;;;;;;73.70;13.73;;;;;;;3.84;100.00;97313.62;4484940;31;20112;-71
2022/12/10 06:16:57;;;;;;;64.72;13.70;;;;;;;3.81;100.00;97319.88;4485099;31;20122;-72
2022/12/10 06:19:24;;;;;;;47.97;13.48;;;;;;;3.78;100.00;97311.56;4484834;31;20485;-71
2022/12/10 06:21:51;;;;;;;44.50;12.73;;;;;;;3.68;100.00;97312.34;4472592;31;20772;-72
2022/12/10 06:24:18;;;;;;;67.28;13.38;;;;;;;3.58;100.00;97308.09;4469240;32;20214;-71
2022/12/10 06:26:47;;;;;;;48.78;12.37;;;;;;;3.55;100.00;97314.34;4469555;32;20113;-72
2022/12/10 06:29:18;;;;;;;35.55;14.68;;;;;;;3.55;100.00;97325.50;4469143;32;20108;-71
2022/12/10 06:31:45;;;;;;;32.65;13.82;;;;;;;3.51;100.00;97320.72;4469075;32;20119;-72
2022/12/10 06:34:12;;;;;;;32.95;13.02;;;;;;;3.48;100.00;97341.69;4469043;32;20089;-71
2022/12/10 06:36:40;;;;;;;35.85;13.07;;;;;;;3.53;100.00;97342.94;4469152;32;20116;-72
2022/12/10 06:39:07;;;;;;;32.75;14.18;;;;;;;3.64;100.00;97339.44;4468929;32;20092;-71
2022/12/10 06:41:34;;;;;;;34.22;13.25;;;;;;;3.54;100.00;97338.56;4469117;32;20551;-72
2022/12/10 06:44:01;;;;;;;27.95;13.18;;;;;;;3.57;100.00;97348.69;4468998;32;20871;-72
2022/12/10 06:46:28;;;;;;;29.95;12.32;;;;;;;3.62;100.00;97348.28;4469140;32;20156;-72
2022/12/10 06:48:55;;;;;;;33.53;13.80;;;;;;;3.58;100.00;97352.09;4468574;32;20116;-72
2022/12/10 06:51:24;;;;;;;26.58;11.80;;;;;;;3.57;100.00;97359.03;4469328;32;20101;-72
2022/12/10 06:53:51;;;;;;;35.10;14.05;;;;;;;3.58;100.00;97360.69;4468836;32;20088;-72
2022/12/10 06:56:19;;;;;;;27.75;12.37;;;;;;;3.58;100.00;97358.09;4468926;32;20461;-72
2022/12/10 06:58:47;;;;;;;26.48;11.38;;;;;;;3.56;100.00;97352.22;4469023;32;20097;-72
2022/12/10 07:01:16;;;;;;;25.60;10.90;;;;;;;3.40;100.00;97337.16;4469063;32;20123;-71
2022/12/10 07:03:44;;;;;;;23.17;10.55;;;;;;;3.20;100.00;97325.84;4468731;32;20096;-71
2022/12/10 07:06:12;;;;;;;28.02;11.45;;;;;;;3.20;100.00;97326.66;4467320;32;20156;-72
2022/12/10 07:08:39;;;;;;;25.67;11.52;;;;;;;3.24;100.00;97331.59;4473456;32;20442;-71
2022/12/10 07:11:08;;;;;;;23.85;11.40;;;;;;;3.33;100.00;97336.00;4484281;31;20104;-72
2022/12/10 07:13:36;;;;;;;24.65;10.95;;;;;;;3.28;100.00;97335.56;4484332;31;20447;-71
2022/12/10 07:16:07;;;;;;;26.02;10.88;;;;;;;3.30;100.00;97331.91;4484257;31;20080;-71
2022/12/10 07:18:34;;;;;;;25.42;11.25;;;;;;;3.32;100.00;97331.78;4483005;32;20374;-71
2022/12/10 07:21:01;;;;;;;24.00;11.68;;;;;;;3.35;100.00;97323.78;4476968;31;20127;-72
2022/12/10 07:23:28;;;;;;;31.27;13.13;;;;;;;3.40;100.00;97315.63;4468519;32;20446;-71
2022/12/10 07:25:55;;;;;;;27.45;11.52;;;;;;;3.44;100.00;97306.66;4468341;32;20119;-72
2022/12/10 07:28:23;;;;;;;25.23;12.45;;;;;;;3.39;100.00;97288.91;4468498;32;20088;-71
2022/12/10 07:30:50;;;;;;;27.27;11.85;;;;;;;3.35;100.00;97288.34;4468239;32;20466;-72
2022/12/10 07:33:17;;;;;;;30.23;12.55;;;;;;;3.36;100.00;97284.81;4468727;32;20096;-72
2022/12/10 07:35:44;;;;;;;25.45;12.10;;;;;;;3.44;100.00;97296.31;4467996;32;20122;-72
2022/12/10 07:38:15;;;;;;;29.77;12.07;;;;;;;3.36;100.00;97302.94;4468351;32;20141;-72
2022/12/10 07:40:42;;;;;;;27.73;11.73;;;;;;;3.34;100.00;97325.53;4468080;32;20146;-72
2022/12/10 07:43:11;;;;;;;31.10;12.37;;;;;;;3.37;100.00;97330.44;4468403;32;20158;-72
2022/12/10 07:45:38;;;;;;;27.75;12.43;;;;;;;3.43;100.00;97336.06;4468025;32;20588;-72
2022/12/10 07:48:05;;;;;;;26.87;11.18;;;;;;;3.41;100.00;97340.53;4468195;32;20163;-72
2022/12/10 07:50:33;;;;;;;31.90;12.30;;;;;;;3.50;100.00;97350.97;4468130;32;20093;-72
2022/12/10 07:53:00;;;;;;;27.90;12.95;;;;;;;3.50;100.00;97353.56;4468188;32;20153;-71
2022/12/10 07:55:27;;;;;;;30.92;12.48;;;;;;;3.47;100.00;97343.47;4467964;32;20093;-71
2022/12/10 07:57:54;;;;;;;28.67;12.27;;;;;;;3.59;100.00;97349.37;4468078;32;20160;-71
2022/12/10 08:00:21;;;;;;;25.55;11.73;;;;;;;3.62;100.00;97356.91;4468843;32;20179;-72
2022/12/10 08:02:48;;;;;;;28.90;12.30;;;;;;;3.60;100.00;97342.44;4470330;32;20105;-72
2022/12/10 08:05:16;;;;;;;25.02;12.27;;;;;;;3.67;100.00;97341.78;4470379;32;20543;-72
2022/12/10 08:07:43;;;;;;;26.37;11.88;;;;;;;3.64;100.00;97333.47;4470034;32;20157;-71
2022/12/10 08:10:12;;;;;;;25.08;12.52;;;;;;;3.58;100.00;97347.75;4485645;32;20508;-71
2022/12/10 08:12:39;;;;;;;25.80;12.13;;;;;;;3.59;100.00;97344.22;4485920;31;20152;-72
2022/12/10 08:15:06;;;;;;;26.40;11.68;;;;;;;3.51;100.00;97341.41;4485992;31;20092;-72
2022/12/10 08:17:35;;;;;;;25.33;12.23;;;;;;;3.51;100.00;97331.06;4485849;31;20100;-72
2022/12/10 08:20:02;;;;;;;25.45;11.18;;;;;;;3.61;100.00;97325.94;4485428;31;20152;-72
2022/12/10 08:22:29;;;;;;;23.73;11.98;;;;;;;3.49;100.00;97326.00;4470205;32;20160;-72
2022/12/10 08:24:57;;;;;;;25.02;12.25;;;;;;;3.53;100.00;97327.41;4470041;32;20499;-71
2022/12/10 08:27:24;;;;;;;28.05;13.43;;;;;;;3.55;100.00;97325.50;4470088;32;20513;-72
2022/12/10 08:29:51;;;;;;;28.20;12.15;;;;;;;3.65;100.00;97322.97;4470034;32;20089;-71
2022/12/10 08:32:18;;;;;;;24.30;11.80;;;;;;;3.73;100.00;97330.91;4470168;32;20627;-72
2022/12/10 08:34:45;;;;;;;24.73;11.85;;;;;;;3.67;100.00;97330.63;4469874;32;20093;-72
2022/12/10 08:37:12;;;;;;;29.05;12.37;;;;;;;3.56;100.00;97326.34;4470071;32;20097;-72
2022/12/10 08:39:40;;;;;;;25.60;11.15;;;;;;;3.54;100.00;97338.56;4469935;32;20146;-72
2022/12/10 08:42:07;;;;;;;21.60;11.00;;;;;;;3.59;100.00;97344.22;4469940;32;20093;-72
2022/12/10 08:44:34;;;;;;;26.60;11.90;;;;;;;3.51;100.00;97347.44;4469978;32;20379;-72
2022/12/10 08:47:01;;;;;;;23.70;12.02;;;;;;;3.69;100.00;97350.25;4469659;32;20156;-72
2022/12/10 08:49:28;;;;;;;21.92;10.32;;;;;;;3.78;100.00;97340.87;4470010;32;20193;-72
2022/12/10 08:51:55;;;;;;;28.70;11.70;;;;;;;3.61;100.00;97357.84;4469908;32;20154;-72
2022/12/10 08:54:23;;;;;;;31.73;13.25;;;;;;;3.42;100.00;97365.50;4469966;32;20176;-72
2022/12/10 08:56:50;;;;;;;28.40;12.37;;;;;;;3.55;100.00;97360.94;4469665;32;20093;-72
2022/12/10 08:59:17;;;;;;;27.10;12.07;;;;;;;3.59;100.00;97364.94;4469803;32;20089;-72
2022/12/10 09:01:45;;;;;;;29.63;13.45;;;;;;;3.54;100.00;97372.22;4470079;32;20472;-72
2022/12/10 09:04:12;;;;;;;33.72;12.50;;;;;;;3.59;100.00;97367.50;4469859;32;20102;-72
2022/12/10 09:06:39;;;;;;;39.45;14.57;;;;;;;3.56;100.00;97380.72;4469723;32;20115;-72
2022/12/10 09:09:07;;;;;;;38.22;14.73;;;;;;;3.55;100.00;97373.88;4477640;32;20504;-72
2022/12/10 09:11:34;;;;;;;36.90;14.38;;;;;;;3.40;100.00;97375.97;4485404;31;20120;-72
2022/12/10 09:14:01;;;;;;;33.10;13.13;;;;;;;3.51;100.00;97375.09;4485521;31;20481;-72
2022/12/10 09:16:31;;;;;;;33.92;15.07;;;;;;;3.26;100.00;97379.69;4485725;31;20151;-72
2022/12/10 09:18:59;;;;;;;37.85;14.63;;;;;;;3.29;100.00;97376.84;4485431;31;20151;-71
2022/12/10 09:21:26;;;;;;;30.73;13.62;;;;;;;3.28;100.00;97364.84;4485235;31;20108;-72
2022/12/10 09:23:54;;;;;;;36.03;14.73;;;;;;;3.31;100.00;97368.97;4485216;31;20100;-72
2022/12/10 09:26:21;;;;;;;36.85;15.27;;;;;;;3.26;100.00;97365.94;4485441;31;20118;-72
2022/12/10 09:28:48;;;;;;;39.00;15.70;;;;;;;3.32;100.00;97371.44;4485243;31;20104;-71
2022/12/10 09:31:17;;;;;;;38.75;15.60;;;;;;;3.16;100.00;97378.81;4485690;31;20108;-72
2022/12/10 09:33:51;;;;;;;34.55;14.38;;;;;;;3.13;100.00;97368.69;4485196;31;20092;-72
2022/12/10 09:36:20;;;;;;;35.75;13.73;;;;;;;3.13;100.00;97346.22;4485301;31;20147;-72
2022/12/10 09:38:48;;;;;;;35.47;13.77;;;;;;;3.17;100.00;97347.63;4484967;31;20158;-72
2022/12/10 09:41:36;;;;;;;33.95;15.25;;;;;;;3.20;100.00;97333.63;4485614;31;20122;-72
2022/12/10 09:44:08;;;;;;;41.20;15.93;;;;;;;3.30;100.00;97326.75;4485259;31;20506;-72
2022/12/10 09:46:47;;;;;;;36.13;15.00;;;;;;;3.48;100.00;97321.81;4485261;31;20102;-72
2022/12/10 09:49:26;;;;;;;36.33;15.15;;;;;;;3.26;100.00;97312.41;4485292;31;20100;-71
2022/12/10 09:51:56;;;;;;;34.95;13.32;;;;;;;3.13;100.00;97306.59;4484044;32;20175;-72
2022/12/10 09:54:30;;;;;;;36.05;14.15;;;;;;;3.13;100.00;97293.66;4483994;32;20092;-71
2022/12/10 09:56:58;;;;;;;47.70;12.98;;;;;;;3.11;100.00;97286.03;4485200;31;20092;-72
2022/12/10 09:59:28;;;;;;;35.55;12.73;;;;;;;3.12;100.00;97281.66;4485054;31;20120;-71
2022/12/10 10:02:20;;;;;;;38.20;12.95;;;;;;;3.15;100.00;97286.59;4484991;31;20607;-71
2022/12/10 10:04:54;;;;;;;29.65;13.45;;;;;;;3.07;100.00;97294.16;4475546;32;20088;-72
2022/12/10 10:07:24;;;;;;;39.88;13.43;;;;;;;3.11;100.00;97287.81;4485032;31;20088;-72
2022/12/10 10:09:59;;;;;;;34.33;12.60;;;;;;;3.29;100.00;97288.06;4470801;32;20147;-72
2022/12/10 10:12:28;;;;;;;34.75;13.62;;;;;;;3.27;100.00;97292.50;4469379;32;20111;-72
2022/12/10 10:14:55;;;;;;;45.30;14.52;;;;;;;3.31;100.00;97288.72;4469347;32;20096;-72
2022/12/10 10:17:36;;;;;;;38.88;12.70;;;;;;;3.33;100.00;97295.44;4469230;32;20152;-72
2022/12/10 10:20:04;;;;;;;42.28;13.23;;;;;;;3.27;100.00;97283.00;4468802;32;20137;-72
2022/12/10 10:22:31;;;;;;;31.50;10.80;;;;;;;3.28;100.00;97287.22;4484164;31;20418;-72
2022/12/10 10:25:02;;;;;;;33.30;10.95;;;;;;;3.32;100.00;97296.38;4485087;32;20336;-72
2022/12/10 10:27:31;;;;;;;33.17;9.82;;;;;;;3.31;100.00;97306.84;4484859;31;20124;-71
2022/12/10 10:30:00;;;;;;;23.48;9.70;;;;;;;3.31;100.00;97307.66;4484895;31;20118;-71
2022/12/10 10:32:36;;;;;;;29.15;11.90;;;;;;;3.40;100.00;97313.03;4483541;32;20653;-72
2022/12/10 10:35:05;;;;;;;25.35;9.95;;;;;;;3.43;100.00;97315.38;4484897;31;20080;-71
2022/12/10 10:37:35;;;;;;;32.80;9.90;;;;;;;3.55;100.00;97303.97;4484647;31;20092;-72
2022/12/10 10:40:03;;;;;;;34.10;11.30;;;;;;;3.64;100.00;97302.37;4484692;31;20131;-71
2022/12/10 10:42:37;;;;;;;25.95;12.25;;;;;;;3.52;100.00;97309.41;4483511;32;20096;-71
2022/12/10 10:45:25;;;;;;;27.55;10.52;;;;;;;3.47;100.00;97325.34;4484870;31;20570;-71
2022/12/10 10:48:17;;;;;;;26.87;10.48;;;;;;;3.53;100.00;97316.25;4435354;32;20151;-71
2022/12/10 10:50:45;;;;;;;32.85;11.25;;;;;;;3.53;100.00;97311.06;4435663;32;20140;-72
2022/12/10 10:53:43;;;;;;;28.40;11.20;;;;;;;3.49;100.00;97307.09;4435409;32;20602;-71
2022/12/10 10:56:24;;;;;;;45.40;17.08;;;;;;;3.56;100.00;97313.41;4404601;32;20086;-72
2022/12/10 10:59:12;;;;;;;28.67;11.93;;;;;;;3.63;100.00;97296.38;4404645;32;20164;-72
2022/12/10 11:01:52;;;;;;;26.00;11.63;;;;;;;3.65;100.00;97293.66;4404747;32;20510;-72
2022/12/10 11:04:55;;;;;;;25.42;10.43;;;;;;;3.75;100.00;97293.72;4404675;32;20158;-72
2022/12/10 11:07:33;;;;;;;28.67;11.77;;;;;;;3.60;100.00;97286.28;4389290;32;20240;-71
2022/12/10 11:10:01;;;;;;;25.35;9.95;;;;;;;3.65;100.00;97286.72;4374365;32;20124;-72
2022/12/10 11:12:35;;;;;;;30.02;11.15;;;;;;;3.47;100.00;97285.69;4374674;32;20182;-72
2022/12/10 11:15:22;;;;;;;27.33;11.93;;;;;;;3.50;100.00;97282.84;4374648;32;20114;-71
2022/12/10 11:17:52;;;;;;;25.33;10.80;;;;;;;3.48;100.00;97277.78;4374032;32;20106;-71
2022/12/10 11:20:23;;;;;;;25.08;10.77;;;;;;;3.45;100.00;97279.81;4379199;32;20113;-71
2022/12/10 11:23:01;;;;;;;27.35;11.27;;;;;;;3.36;100.00;97278.81;4404353;32;20124;-71
2022/12/10 11:25:52;;;;;;;27.37;11.73;;;;;;;3.25;100.00;97269.34;4404379;32;20330;-71
2022/12/10 11:28:25;;;;;;;26.45;11.02;;;;;;;3.31;100.00;97261.06;4404342;32;20602;-71
2022/12/10 11:31:13;;;;;;;24.33;9.60;;;;;;;3.35;100.00;97252.09;4404293;32;20106;-71
2022/12/10 11:33:43;;;;;;;24.35;9.43;;;;;;;3.37;100.00;97245.03;4439439;32;20647;-71
2022/12/10 11:36:26;;;;;;;24.65;10.20;;;;;;;3.44;100.00;97229.00;4452186;32;20163;-72
2022/12/10 11:38:59;;;;;;;26.12;10.82;;;;;;;3.44;100.00;97221.22;4452303;32;20136;-72
2022/12/10 11:41:40;;;;;;;24.73;10.55;;;;;;;3.37;100.00;97224.31;4452457;32;20171;-71
2022/12/10 11:44:17;;;;;;;27.77;11.15;;;;;;;3.44;100.00;97221.22;4467961;32;20113;-71
2022/12/10 11:47:09;;;;;;;29.85;11.30;;;;;;;3.47;100.00;97213.22;4470431;32;20096;-72